CheckWX is a tool to help pilots better visualize weather data.  It is not intended as a substitute for an official pre-flight weather briefing.

04:30:23 UTC

KGWO TAF
Greenwood-Leflore Airport
Greenwood, Mississippi, USA
KGWO 282320Z 2900/2924 26007KT P6SM SKC

Feb-29@
00:00 UTC

Feb-29 @ 00:00 UTC

Mar-1@
00:00 UTC

Mar-1 @ 00:00 UTC

KGWO 282320Z 2900/2924 26007KT P6SM SKC
Wind
  • 260° at 7 KTS
Cloud Levels
  • Clear skies